Lake Monroe, Florida
Current Conditions -  °F | °C
As of 10:53 AM on Sunday 21 Dec 2014 (Local Time) from KSFB Reporting Station
Clear Clear  
Wind Chill: 74°   Ceiling: Unl
Heat Index: 74°   Visibility: 10mi
Dew Point: 62°   Wind: 6mph
Humidity: 66%   Direction: 160°SSE
Pressure: 30.09"   Gusts: NA
Location:  28.83°N, 81.33°W
Report Text: KSFB 211553Z 16005KT 10SM CLR 23/17 A3009 RMK AO2 SLP189 T02330167
Loading
Personal Weather Stations






























Interactive Weather Map New forecast layout! Learn more

10-Day Weather Forecast

Advertisements
Track Severe Weather on mobile